createdAt,value
2019-04-01T00:00:38.005Z,5.07
2019-04-01T00:03:11.791Z,2.90
2019-04-01T00:05:45.458Z,4.17
2019-04-01T00:08:19.047Z,4.63
2019-04-01T00:10:52.686Z,4.80
2019-04-01T00:13:26.341Z,4.47
2019-04-01T00:15:59.943Z,4.00
2019-04-01T00:18:33.628Z,5.30
2019-04-01T00:21:07.206Z,3.60
2019-04-01T00:23:40.828Z,8.13
2019-04-01T00:26:14.486Z,4.93
2019-04-01T00:28:48.113Z,5.60
2019-04-01T00:31:21.767Z,4.87
2019-04-01T00:33:55.470Z,4.27
2019-04-01T00:36:29.138Z,5.00
2019-04-01T00:39:04.135Z,4.80
2019-04-01T00:41:39.509Z,4.57
2019-04-01T00:44:12.995Z,3.67
2019-04-01T00:46:46.643Z,5.37
2019-04-01T00:49:20.257Z,5.13
2019-04-01T00:51:53.911Z,4.40
2019-04-01T00:54:27.522Z,4.03
2019-04-01T00:57:01.183Z,6.03
2019-04-01T00:59:34.877Z,6.23
2019-04-01T01:02:08.539Z,5.63
2019-04-01T01:04:42.150Z,4.03
2019-04-01T01:07:15.884Z,7.07
2019-04-01T01:09:49.499Z,5.10
2019-04-01T01:12:23.087Z,4.33
2019-04-01T01:14:56.709Z,3.67
2019-04-01T01:17:30.220Z,2.67
2019-04-01T01:20:05.789Z,5.23
2019-04-01T01:22:39.512Z,3.90
2019-04-01T01:25:13.224Z,4.17
2019-04-01T01:27:46.956Z,4.97
2019-04-01T01:30:20.584Z,3.87
2019-04-01T01:32:54.312Z,3.10
2019-04-01T01:35:27.935Z,3.80
2019-04-01T01:38:01.663Z,7.17
2019-04-01T01:40:35.287Z,4.47
2019-04-01T01:43:08.867Z,3.57
2019-04-01T01:45:42.426Z,3.57
2019-04-01T01:48:15.935Z,5.33
2019-04-01T01:50:49.484Z,5.00
2019-04-01T01:53:23.063Z,5.60
2019-04-01T01:55:56.602Z,5.43
2019-04-01T01:58:30.264Z,3.73
2019-04-01T02:01:03.953Z,3.83
2019-04-01T02:03:37.673Z,5.30
2019-04-01T02:06:11.304Z,4.70
2019-04-01T02:08:45.033Z,4.07
2019-04-01T02:11:18.727Z,3.17
2019-04-01T02:13:52.421Z,5.30
2019-04-01T02:16:26.127Z,4.27
2019-04-01T02:18:59.702Z,2.90
2019-04-01T02:21:33.252Z,4.73
2019-04-01T02:24:06.987Z,3.20
2019-04-01T02:26:40.623Z,3.33
2019-04-01T02:29:14.353Z,4.83
2019-04-01T02:31:47.978Z,4.77
2019-04-01T02:34:21.579Z,3.10
2019-04-01T02:36:55.313Z,1.83
2019-04-01T02:39:29.034Z,4.43
2019-04-01T02:42:02.687Z,2.83
2019-04-01T02:44:36.303Z,6.80
2019-04-01T02:47:09.982Z,2.90
2019-04-01T02:49:43.667Z,3.93
2019-04-01T02:52:17.351Z,8.63
2019-04-01T02:54:50.984Z,4.63
2019-04-01T02:57:24.655Z,4.17
2019-04-01T02:59:58.353Z,6.13
2019-04-01T03:02:32.085Z,4.50
2019-04-01T03:05:06.186Z,7.47
2019-04-01T03:07:39.914Z,3.53
2019-04-01T03:10:13.684Z,3.90
2019-04-01T03:12:47.404Z,5.63
2019-04-01T03:15:21.109Z,4.93
2019-04-01T03:17:54.711Z,2.67
2019-04-01T03:20:28.409Z,2.73
2019-04-01T03:23:02.312Z,3.03
2019-04-01T03:25:36.045Z,6.13
2019-04-01T03:28:09.771Z,4.50
2019-04-01T03:30:43.408Z,2.37
2019-04-01T03:33:17.148Z,4.77
2019-04-01T03:35:50.869Z,4.87
2019-04-01T03:38:27.872Z,3.30
2019-04-01T03:41:00.258Z,6.03
2019-04-01T03:43:34.004Z,6.13
2019-04-01T03:46:07.732Z,2.83
2019-04-01T03:48:41.356Z,6.27
2019-04-01T03:51:15.005Z,7.73
2019-04-01T03:53:48.632Z,4.03
2019-04-01T03:56:22.370Z,7.77
2019-04-01T03:58:55.993Z,5.07
2019-04-01T04:01:30.510Z,6.33
2019-04-01T04:04:04.489Z,4.10
2019-04-01T04:06:38.184Z,4.40
2019-04-01T04:09:11.853Z,5.73
2019-04-01T04:11:45.539Z,5.93
2019-04-01T04:14:19.213Z,5.00
2019-04-01T04:16:52.842Z,3.80
2019-04-01T04:19:26.633Z,6.03
2019-04-01T04:22:00.385Z,3.87
2019-04-01T04:24:34.081Z,3.87
2019-04-01T04:27:11.146Z,6.80
2019-04-01T04:29:43.117Z,5.57
2019-04-01T04:32:16.862Z,3.77
2019-04-01T04:34:50.484Z,6.57
2019-04-01T04:37:24.337Z,4.13
2019-04-01T04:39:58.031Z,7.23
2019-04-01T04:42:31.677Z,6.03
2019-04-01T04:45:07.019Z,4.80
2019-04-01T04:47:40.739Z,5.13
2019-04-01T04:50:14.550Z,6.90
2019-04-01T04:52:48.271Z,5.03
2019-04-01T04:55:21.911Z,9.07
2019-04-01T04:57:55.536Z,9.50
2019-04-01T05:00:29.259Z,6.50
2019-04-01T05:03:02.899Z,6.10
2019-04-01T05:05:36.550Z,7.40
2019-04-01T05:08:10.175Z,8.90
2019-04-01T05:10:43.895Z,7.50
2019-04-01T05:13:17.564Z,4.73
2019-04-01T05:15:51.287Z,6.37
2019-04-01T05:18:24.847Z,5.70
2019-04-01T05:20:59.907Z,7.07
2019-04-01T05:23:33.699Z,4.93
2019-04-01T05:26:08.649Z,4.87
2019-04-01T05:28:45.175Z,5.53
2019-04-01T05:31:21.636Z,7.07
2019-04-01T05:33:56.271Z,5.33
2019-04-01T05:36:31.571Z,5.43
2019-04-01T05:39:07.100Z,6.40
2019-04-01T05:41:41.119Z,6.23
2019-04-01T05:44:14.784Z,5.30
2019-04-01T05:46:48.483Z,8.03
2019-04-01T05:49:22.143Z,6.63
2019-04-01T05:51:55.833Z,6.07
2019-04-01T05:54:29.554Z,8.53
2019-04-01T05:57:03.339Z,7.63
2019-04-01T05:59:36.955Z,6.93
2019-04-01T06:02:10.685Z,7.37
2019-04-01T06:04:44.314Z,6.33
2019-04-01T06:07:18.035Z,4.90
2019-04-01T06:09:51.653Z,7.90
2019-04-01T06:12:25.379Z,6.57
2019-04-01T06:14:58.999Z,5.87
2019-04-01T06:17:32.656Z,7.70
2019-04-01T06:20:07.491Z,5.43
2019-04-01T06:22:41.102Z,6.23
2019-04-01T06:25:14.768Z,5.67
2019-04-01T06:27:48.382Z,8.17
2019-04-01T06:30:22.040Z,4.90
2019-04-01T06:32:55.662Z,7.40
2019-04-01T06:35:29.384Z,6.33
2019-04-01T06:38:02.999Z,5.13
2019-04-01T06:40:36.728Z,6.33
2019-04-01T06:43:10.422Z,5.63
2019-04-01T06:45:44.151Z,7.40
2019-04-01T06:48:17.867Z,5.97
2019-04-01T06:50:51.560Z,5.17
2019-04-01T06:53:25.292Z,5.83
2019-04-01T06:55:58.911Z,5.57
2019-04-01T06:58:32.570Z,5.63
2019-04-01T07:01:06.261Z,4.03
2019-04-01T07:03:39.984Z,7.60
2019-04-01T07:06:13.699Z,5.47
2019-04-01T07:08:47.494Z,4.13
2019-04-01T07:11:21.166Z,7.50
2019-04-01T07:13:56.052Z,4.67
2019-04-01T07:16:29.787Z,5.17
2019-04-01T07:19:03.506Z,4.43
2019-04-01T07:21:37.202Z,4.80
2019-04-01T07:24:11.044Z,7.07
2019-04-01T07:26:44.658Z,5.23
2019-04-01T07:29:18.347Z,5.40
2019-04-01T07:31:52.161Z,5.10
2019-04-01T07:34:26.027Z,5.63
2019-04-01T07:36:59.791Z,5.23
2019-04-01T07:39:33.459Z,5.30
2019-04-01T07:42:07.144Z,6.97
2019-04-01T07:44:40.967Z,5.57
2019-04-01T07:47:14.592Z,3.83
2019-04-01T07:49:48.344Z,4.13
2019-04-01T07:52:22.074Z,5.80
2019-04-01T07:54:55.760Z,6.83
2019-04-01T07:57:32.526Z,4.93
2019-04-01T08:00:07.006Z,4.60
2019-04-01T08:02:40.733Z,5.47
2019-04-01T08:05:14.623Z,5.27
2019-04-01T08:07:48.261Z,6.23
2019-04-01T08:10:21.892Z,5.33
2019-04-01T08:12:55.616Z,3.47
2019-04-01T08:15:29.237Z,6.57
2019-04-01T08:18:02.892Z,4.83
2019-04-01T08:20:36.528Z,5.37
2019-04-01T08:23:10.181Z,5.70
2019-04-01T08:25:43.897Z,5.73
2019-04-01T08:28:17.615Z,4.37
2019-04-01T08:30:51.490Z,6.00
2019-04-01T08:33:25.216Z,4.87
2019-04-01T08:35:58.837Z,4.83
2019-04-01T08:38:32.774Z,6.50
2019-04-01T08:41:06.462Z,4.40
2019-04-01T08:43:40.296Z,4.80
2019-04-01T08:46:14.000Z,4.83
2019-04-01T08:48:47.933Z,4.87
2019-04-01T08:51:21.563Z,4.73
2019-04-01T08:53:55.283Z,4.03
2019-04-01T08:56:28.908Z,3.90
2019-04-01T08:59:02.632Z,4.17
2019-04-01T09:01:36.397Z,5.17
2019-04-01T09:04:10.059Z,4.17
2019-04-01T09:06:43.797Z,4.90
2019-04-01T09:09:17.480Z,3.77
2019-04-01T09:11:51.967Z,5.57
2019-04-01T09:14:26.538Z,4.20
2019-04-01T09:17:01.135Z,5.03
2019-04-01T09:19:34.867Z,4.83
2019-04-01T09:22:08.678Z,5.17
2019-04-01T09:24:42.368Z,5.27
2019-04-01T09:27:16.035Z,3.63
2019-04-01T09:29:49.791Z,4.03
2019-04-01T09:32:23.417Z,4.03
2019-04-01T09:34:57.076Z,5.70
2019-04-01T09:37:30.775Z,7.10
2019-04-01T09:40:06.918Z,4.50
2019-04-01T09:42:40.636Z,4.50
2019-04-01T09:45:14.756Z,6.43
2019-04-01T09:47:48.492Z,3.47
2019-04-01T09:50:22.192Z,4.73
2019-04-01T09:52:55.916Z,6.53
2019-04-01T09:55:29.472Z,7.17
2019-04-01T09:58:03.195Z,4.70
2019-04-01T10:00:36.815Z,5.30
2019-04-01T10:03:10.466Z,3.87
2019-04-01T10:05:44.103Z,6.67
2019-04-01T10:08:17.918Z,6.37
2019-04-01T10:10:51.445Z,6.53
2019-04-01T10:13:25.171Z,6.60
2019-04-01T10:15:58.864Z,5.83
2019-04-01T10:18:32.916Z,7.47
2019-04-01T10:21:06.490Z,6.27
2019-04-01T10:23:40.152Z,6.83
2019-04-01T10:26:13.865Z,5.40
2019-04-01T10:28:47.586Z,5.80
2019-04-01T10:31:21.319Z,6.10
2019-04-01T10:33:55.040Z,5.13
2019-04-01T10:36:28.700Z,7.33
2019-04-01T10:39:02.432Z,6.73
2019-04-01T10:41:36.057Z,5.63
2019-04-01T10:44:09.714Z,7.13
2019-04-01T10:46:43.432Z,8.83
2019-04-01T10:49:17.147Z,5.57
2019-04-01T10:51:51.869Z,6.40
2019-04-01T10:54:25.625Z,8.87
2019-04-01T10:56:59.416Z,8.57
2019-04-01T10:59:33.127Z,5.30
2019-04-01T11:02:08.125Z,7.37
2019-04-01T11:04:41.981Z,9.13
2019-04-01T11:07:15.722Z,5.87
2019-04-01T11:09:49.384Z,7.20
2019-04-01T11:12:23.397Z,7.20
2019-04-01T11:14:57.988Z,5.23
2019-04-01T11:17:31.703Z,7.07
2019-04-01T11:20:08.092Z,9.47
2019-04-01T11:22:42.120Z,5.50
2019-04-01T11:25:15.777Z,5.87
2019-04-01T11:27:49.475Z,8.60
2019-04-01T11:30:23.215Z,5.73
2019-04-01T11:32:56.961Z,6.67
2019-04-01T11:35:30.646Z,7.13
2019-04-01T11:38:04.371Z,5.07
2019-04-01T11:40:38.866Z,6.00
2019-04-01T11:43:12.890Z,6.00
2019-04-01T11:45:46.617Z,6.57
2019-04-01T11:48:20.293Z,6.13
2019-04-01T11:50:54.217Z,5.63
2019-04-01T11:53:28.344Z,5.23
2019-04-01T11:56:02.075Z,8.07
2019-04-01T11:58:35.767Z,5.40
2019-04-01T12:01:09.435Z,4.93
2019-04-01T12:03:43.093Z,7.57
2019-04-01T12:06:16.791Z,7.03
2019-04-01T12:08:50.446Z,5.30
2019-04-01T12:11:24.072Z,5.37
2019-04-01T12:13:57.840Z,7.00
2019-04-01T12:16:31.466Z,8.20
2019-04-01T12:19:05.235Z,6.00
2019-04-01T12:21:41.427Z,6.83
2019-04-01T12:24:14.312Z,7.90
2019-04-01T12:26:47.941Z,7.87
2019-04-01T12:29:21.675Z,7.63
2019-04-01T12:31:55.415Z,6.20
2019-04-01T12:34:29.484Z,8.30
2019-04-01T12:37:03.220Z,6.00
2019-04-01T12:39:36.985Z,5.53
2019-04-01T12:42:10.795Z,7.63
2019-04-01T12:44:44.479Z,7.17
2019-04-01T12:47:18.095Z,6.90
2019-04-01T12:49:51.760Z,7.47
2019-04-01T12:52:26.259Z,7.67
2019-04-01T12:55:01.042Z,5.63
2019-04-01T12:57:34.946Z,7.30
2019-04-01T13:00:11.444Z,8.60
2019-04-01T13:02:45.025Z,5.67
2019-04-01T13:05:18.667Z,6.40
2019-04-01T13:07:54.144Z,5.87
2019-04-01T13:10:27.654Z,6.50
2019-04-01T13:13:01.284Z,6.90
2019-04-01T13:15:34.942Z,9.53
2019-04-01T13:18:08.726Z,7.33
2019-04-01T13:20:43.055Z,7.10
2019-04-01T13:23:16.753Z,7.17
2019-04-01T13:25:50.395Z,6.33
2019-04-01T13:28:27.493Z,6.53
2019-04-01T13:31:01.228Z,6.23
2019-04-01T13:33:34.919Z,7.27
2019-04-01T13:36:08.588Z,7.13
2019-04-01T13:38:42.203Z,6.87
2019-04-01T13:41:16.190Z,7.80
2019-04-01T13:43:49.937Z,8.00
2019-04-01T13:46:23.614Z,11.13
2019-04-01T13:48:59.283Z,7.33
2019-04-01T13:51:32.536Z,7.97
2019-04-01T13:54:09.099Z,7.37
2019-04-01T13:56:42.892Z,7.23
2019-04-01T13:59:17.574Z,6.90
2019-04-01T14:01:51.371Z,6.33
2019-04-01T14:04:25.104Z,6.33
2019-04-01T14:06:58.834Z,6.70
2019-04-01T14:09:32.567Z,7.47
2019-04-01T14:12:06.293Z,6.07
2019-04-01T14:14:39.920Z,7.37
2019-04-01T14:17:13.592Z,6.70
2019-04-01T14:19:47.260Z,7.37
2019-04-01T14:22:20.958Z,8.13
2019-04-01T14:24:54.697Z,6.90
2019-04-01T14:27:28.383Z,6.87
2019-04-01T14:30:02.041Z,7.77
2019-04-01T14:32:35.740Z,8.17
2019-04-01T14:35:09.480Z,7.77
2019-04-01T14:37:43.034Z,8.77
2019-04-01T14:40:16.703Z,8.40
2019-04-01T14:42:50.392Z,7.60
2019-04-01T14:45:24.039Z,7.73
2019-04-01T14:47:58.250Z,9.13
2019-04-01T14:50:32.006Z,9.20
2019-04-01T14:53:06.460Z,7.47
2019-04-01T14:55:40.272Z,8.37
2019-04-01T14:58:14.013Z,8.57
2019-04-01T15:00:47.698Z,9.60
2019-04-01T15:03:21.387Z,12.00
2019-04-01T15:05:55.043Z,8.10
2019-04-01T15:08:28.675Z,9.80
2019-04-01T15:11:02.330Z,9.10
2019-04-01T15:13:35.980Z,11.20
2019-04-01T15:16:09.640Z,9.10
2019-04-01T15:18:43.343Z,9.27
2019-04-01T15:21:16.986Z,8.43
2019-04-01T15:23:53.324Z,10.67
2019-04-01T15:26:26.055Z,8.80
2019-04-01T15:29:00.493Z,8.43
2019-04-01T15:31:34.696Z,8.17
2019-04-01T15:34:09.286Z,8.93
2019-04-01T15:36:43.311Z,9.00
2019-04-01T15:39:17.169Z,9.17
2019-04-01T15:41:50.859Z,10.17
2019-04-01T15:44:24.597Z,10.07
2019-04-01T15:46:58.219Z,8.17
2019-04-01T15:49:31.887Z,9.43
2019-04-01T15:52:05.735Z,11.40
2019-04-01T15:54:39.702Z,9.90
2019-04-01T15:57:15.233Z,8.33
2019-04-01T15:59:48.651Z,9.07
2019-04-01T16:02:22.320Z,11.37
2019-04-01T16:04:55.996Z,8.07
2019-04-01T16:07:29.798Z,8.33
2019-04-01T16:10:05.430Z,9.10
2019-04-01T16:12:39.008Z,8.50
2019-04-01T16:15:12.749Z,9.93
2019-04-01T16:17:46.365Z,11.27
2019-04-01T16:20:20.050Z,9.77
2019-04-01T16:22:53.646Z,8.87
2019-04-01T16:25:27.448Z,12.33
2019-04-01T16:28:01.209Z,10.80
2019-04-01T16:30:34.909Z,13.97
2019-04-01T16:33:08.635Z,9.10
2019-04-01T16:35:42.327Z,10.93
2019-04-01T16:38:15.975Z,10.23
2019-04-01T16:40:52.324Z,8.97
2019-04-01T16:43:24.900Z,10.43
2019-04-01T16:45:58.592Z,9.93
2019-04-01T16:48:32.235Z,9.17
2019-04-01T16:51:05.865Z,8.83
2019-04-01T16:53:40.588Z,10.37
2019-04-01T16:56:14.276Z,11.27
2019-04-01T16:58:47.924Z,9.70
2019-04-01T17:01:23.182Z,11.00
2019-04-01T17:03:57.041Z,9.70
2019-04-01T17:06:30.746Z,10.63
2019-04-01T17:09:05.931Z,10.37
2019-04-01T17:11:39.588Z,11.53
2019-04-01T17:14:13.291Z,10.90
2019-04-01T17:16:47.042Z,9.23
2019-04-01T17:19:20.728Z,9.40
2019-04-01T17:21:54.380Z,9.93
2019-04-01T17:24:28.350Z,9.80
2019-04-01T17:27:05.120Z,9.87
2019-04-01T17:29:39.367Z,9.83
2019-04-01T17:32:13.160Z,9.50
2019-04-01T17:34:46.962Z,12.30
2019-04-01T17:37:20.709Z,13.77
2019-04-01T17:39:54.415Z,11.97
2019-04-01T17:42:28.067Z,11.47
2019-04-01T17:45:24.369Z,10.70
2019-04-01T17:48:00.444Z,14.40
2019-04-01T17:50:33.437Z,9.97
2019-04-01T17:53:09.134Z,11.73
2019-04-01T17:55:45.584Z,12.50
2019-04-01T17:58:18.204Z,11.63
2019-04-01T18:00:56.749Z,12.20
2019-04-01T18:03:30.452Z,12.90
2019-04-01T18:06:04.285Z,10.93
2019-04-01T18:08:37.983Z,12.77
2019-04-01T18:11:11.620Z,10.40
2019-04-01T18:13:45.354Z,9.97
2019-04-01T18:16:19.079Z,11.80
2019-04-01T18:18:52.777Z,9.67
2019-04-01T18:21:26.510Z,12.73
2019-04-01T18:24:00.237Z,11.53
2019-04-01T18:26:33.861Z,12.00
2019-04-01T18:29:07.654Z,11.23
2019-04-01T18:31:41.361Z,10.97
2019-04-01T18:34:15.167Z,12.43
2019-04-01T18:36:48.789Z,12.90
2019-04-01T18:39:22.532Z,11.40
2019-04-01T18:41:56.068Z,9.10
2019-04-01T18:44:29.806Z,13.20
2019-04-01T18:47:04.043Z,9.27
2019-04-01T18:49:37.933Z,9.03
2019-04-01T18:52:11.659Z,13.00
2019-04-01T18:54:45.296Z,11.87
2019-04-01T18:57:19.004Z,9.43
2019-04-01T18:59:52.712Z,10.07
2019-04-01T19:02:26.357Z,10.63
2019-04-01T19:04:59.979Z,9.87
2019-04-01T19:07:35.317Z,12.10
2019-04-01T19:10:11.160Z,9.57
2019-04-01T19:12:44.965Z,9.77
2019-04-01T19:15:18.720Z,11.47
2019-04-01T19:17:52.433Z,10.50
2019-04-01T19:20:26.172Z,9.93
2019-04-01T19:22:59.801Z,12.80
2019-04-01T19:25:33.549Z,10.27
2019-04-01T19:28:07.256Z,7.70
2019-04-01T19:30:43.311Z,9.17
2019-04-01T19:33:17.385Z,10.40
2019-04-01T19:35:51.119Z,9.33
2019-04-01T19:38:25.226Z,7.70
2019-04-01T19:40:59.954Z,8.20
2019-04-01T19:43:33.939Z,8.60
2019-04-01T19:46:09.243Z,8.33
2019-04-01T19:48:43.035Z,10.03
2019-04-01T19:51:16.768Z,7.90
2019-04-01T19:53:50.384Z,9.73
2019-04-01T19:56:24.056Z,6.73
2019-04-01T19:58:57.791Z,10.40
2019-04-01T20:01:31.582Z,7.33
2019-04-01T20:04:05.219Z,9.40
2019-04-01T20:06:40.717Z,9.33
2019-04-01T20:09:14.350Z,7.13
2019-04-01T20:11:48.017Z,10.13
2019-04-01T20:14:21.629Z,8.23
2019-04-01T20:16:55.795Z,8.33
2019-04-01T20:19:29.493Z,8.33
2019-04-01T20:22:03.202Z,6.10
2019-04-01T20:24:36.818Z,7.57
2019-04-01T20:27:10.743Z,7.27
2019-04-01T20:29:44.366Z,7.47
2019-04-01T20:32:19.973Z,7.87
2019-04-01T20:34:57.306Z,7.17
2019-04-01T20:37:29.320Z,5.83
2019-04-01T20:40:04.372Z,5.17
2019-04-01T20:42:38.499Z,6.00
2019-04-01T20:45:13.588Z,6.87
2019-04-01T20:47:50.138Z,10.27
2019-04-01T20:50:23.179Z,7.80
2019-04-01T20:52:56.894Z,7.63
2019-04-01T20:55:30.581Z,6.13
2019-04-01T20:58:04.230Z,5.30
2019-04-01T21:00:38.290Z,5.37
2019-04-01T21:03:12.440Z,8.07
2019-04-01T21:05:46.133Z,8.40
2019-04-01T21:08:19.853Z,5.20
2019-04-01T21:10:53.463Z,7.23
2019-04-01T21:13:27.116Z,7.27
2019-04-01T21:16:01.008Z,5.43
2019-04-01T21:18:34.688Z,7.53
2019-04-01T21:21:08.364Z,5.63
2019-04-01T21:23:42.090Z,6.67
2019-04-01T21:26:15.716Z,6.87
2019-04-01T21:28:49.432Z,5.43
2019-04-01T21:31:23.193Z,7.53
2019-04-01T21:33:56.916Z,7.00
2019-04-01T21:36:30.612Z,7.57
2019-04-01T21:39:06.332Z,8.57
2019-04-01T21:41:40.104Z,9.07
2019-04-01T21:44:13.753Z,5.70
2019-04-01T21:46:47.459Z,6.63
2019-04-01T21:49:21.115Z,6.80
2019-04-01T21:51:54.735Z,6.03
2019-04-01T21:54:28.554Z,6.17
2019-04-01T21:57:02.324Z,6.60
2019-04-01T21:59:36.019Z,10.00
2019-04-01T22:02:09.746Z,6.60
2019-04-01T22:04:43.366Z,7.33
2019-04-01T22:07:17.105Z,10.20
2019-04-01T22:09:50.807Z,6.00
2019-04-01T22:12:24.562Z,7.13
2019-04-01T22:14:58.283Z,7.10
2019-04-01T22:17:31.980Z,5.83
2019-04-01T22:20:07.240Z,6.37
2019-04-01T22:22:40.969Z,7.97
2019-04-01T22:25:14.654Z,6.67
2019-04-01T22:27:48.309Z,7.17
2019-04-01T22:30:22.042Z,6.00
2019-04-01T22:32:55.660Z,6.87
2019-04-01T22:35:38.098Z,9.17
2019-04-01T22:38:06.229Z,7.13
2019-04-01T22:40:40.101Z,6.30
2019-04-01T22:43:13.767Z,7.07
2019-04-01T22:45:49.095Z,7.63
2019-04-01T22:48:23.021Z,7.10
2019-04-01T22:50:57.769Z,8.27
2019-04-01T22:53:32.331Z,7.13
2019-04-01T22:56:07.086Z,7.67
2019-04-01T22:58:40.708Z,7.20
2019-04-01T23:01:15.248Z,7.07
2019-04-01T23:03:49.899Z,8.53
2019-04-01T23:06:23.560Z,7.27
2019-04-01T23:08:57.244Z,6.73
2019-04-01T23:11:30.860Z,7.90
2019-04-01T23:14:04.523Z,6.57
2019-04-01T23:16:38.070Z,8.83
2019-04-01T23:19:11.727Z,9.30
2019-04-01T23:21:45.342Z,7.20
2019-04-01T23:24:18.919Z,8.47
2019-04-01T23:26:52.545Z,8.87
2019-04-01T23:29:26.136Z,11.40
2019-04-01T23:31:59.761Z,8.33
2019-04-01T23:34:33.484Z,7.43
2019-04-01T23:37:07.039Z,7.03
2019-04-01T23:39:40.691Z,7.70
2019-04-01T23:42:14.354Z,5.97
2019-04-01T23:44:48.014Z,7.07
2019-04-01T23:47:22.076Z,7.83
2019-04-01T23:49:55.744Z,10.93
2019-04-01T23:52:29.468Z,8.80
2019-04-01T23:55:03.824Z,7.03
2019-04-01T23:57:37.486Z,7.13
